createdAt,value
2022-08-04T00:02:21.944Z,19.80
2022-08-04T00:05:56.937Z,19.70
2022-08-04T00:09:00.169Z,19.70
2022-08-04T00:11:56.318Z,19.70
2022-08-04T00:14:51.237Z,19.50
2022-08-04T00:17:53.855Z,19.70
2022-08-04T00:20:46.377Z,20.00
2022-08-04T00:24:11.023Z,20.10
2022-08-04T00:26:55.771Z,20.00
2022-08-04T00:29:48.639Z,20.00
2022-08-04T00:32:45.577Z,19.80
2022-08-04T00:35:39.772Z,19.60
2022-08-04T00:38:34.519Z,19.70
2022-08-04T00:41:56.171Z,19.70
2022-08-04T00:45:04.230Z,19.70
2022-08-04T00:48:05.107Z,19.90
2022-08-04T00:51:02.978Z,20.00
2022-08-04T00:53:57.907Z,20.10
2022-08-04T00:57:34.056Z,20.10
2022-08-04T01:00:29.547Z,19.90
2022-08-04T01:03:47.650Z,19.90
2022-08-04T01:07:17.519Z,19.70
2022-08-04T01:10:36.690Z,19.70
2022-08-04T01:13:38.079Z,19.80
2022-08-04T01:16:35.219Z,19.60
2022-08-04T01:20:08.746Z,19.70
2022-08-04T01:23:00.915Z,19.70
2022-08-04T01:26:44.086Z,19.70
2022-08-04T01:29:29.323Z,19.70
2022-08-04T01:32:48.358Z,19.80
2022-08-04T01:35:56.265Z,19.90
2022-08-04T01:38:48.928Z,20.10
2022-08-04T01:41:41.244Z,20.10
2022-08-04T01:44:51.396Z,20.20
2022-08-04T01:47:50.484Z,20.00
2022-08-04T01:50:44.993Z,19.90
2022-08-04T01:53:40.013Z,19.70
2022-08-04T01:56:32.259Z,19.60
2022-08-04T01:59:25.622Z,19.60
2022-08-04T02:02:17.997Z,19.60
2022-08-04T02:05:11.937Z,19.70
2022-08-04T02:08:30.199Z,19.70
2022-08-04T02:11:23.922Z,19.80
2022-08-04T02:14:45.346Z,19.80
2022-08-04T02:17:43.762Z,19.80
2022-08-04T02:20:39.413Z,19.80
2022-08-04T02:23:39.182Z,19.80
2022-08-04T02:26:34.011Z,19.80
2022-08-04T02:29:39.498Z,19.90
2022-08-04T02:32:39.801Z,20.00
2022-08-04T02:35:38.133Z,19.90
2022-08-04T02:38:30.267Z,20.10
2022-08-04T02:41:24.833Z,20.20
2022-08-04T02:44:22.533Z,20.30
2022-08-04T02:47:17.476Z,20.20
2022-08-04T02:50:14.417Z,20.00
2022-08-04T02:53:23.193Z,20.00
2022-08-04T02:56:18.252Z,19.90
2022-08-04T02:59:12.114Z,19.90
2022-08-04T03:02:04.393Z,19.80
2022-08-04T03:05:03.284Z,19.60
2022-08-04T03:08:17.446Z,19.60
2022-08-04T03:11:31.397Z,19.60
2022-08-04T03:14:50.541Z,19.50
2022-08-04T03:17:54.746Z,19.50
2022-08-04T03:21:24.436Z,19.50
2022-08-04T03:24:49.873Z,19.50
2022-08-04T03:28:23.350Z,19.40
2022-08-04T03:31:40.213Z,19.40
2022-08-04T03:35:02.746Z,19.60
2022-08-04T03:38:06.847Z,19.60
2022-08-04T03:42:01.137Z,19.70
2022-08-04T03:45:04.462Z,19.70
2022-08-04T03:48:24.939Z,19.50
2022-08-04T03:51:56.816Z,19.30
2022-08-04T03:55:22.413Z,19.50
2022-08-04T03:58:30.394Z,19.80
2022-08-04T04:02:01.314Z,20.10
2022-08-04T04:05:18.193Z,20.30
2022-08-04T04:08:49.790Z,20.80
2022-08-04T04:12:20.770Z,21.20
2022-08-04T04:15:25.151Z,21.60
2022-08-04T04:18:29.275Z,22.00
2022-08-04T04:21:33.720Z,22.20
2022-08-04T04:24:56.417Z,22.50
2022-08-04T04:28:45.196Z,22.80
2022-08-04T04:31:34.477Z,23.10
2022-08-04T04:34:45.555Z,23.10
2022-08-04T04:37:48.704Z,23.40
2022-08-04T04:41:01.498Z,23.60
2022-08-04T04:43:53.657Z,23.70
2022-08-04T04:47:11.620Z,24.00
2022-08-04T04:50:05.957Z,24.20
2022-08-04T04:53:07.296Z,24.10
2022-08-04T04:56:14.572Z,24.20
2022-08-04T04:59:13.114Z,24.40
2022-08-04T05:02:13.949Z,24.60
2022-08-04T05:05:18.406Z,24.90
2022-08-04T05:08:45.228Z,25.10
2022-08-04T05:11:50.511Z,25.20
2022-08-04T05:14:47.675Z,25.30
2022-08-04T05:17:49.547Z,25.40
2022-08-04T05:20:52.840Z,25.50
2022-08-04T05:23:49.699Z,25.70
2022-08-04T05:26:46.198Z,25.80
2022-08-04T05:29:51.573Z,26.00
2022-08-04T05:32:50.464Z,26.00
2022-08-04T05:36:18.822Z,26.20
2022-08-04T05:39:06.165Z,26.00
2022-08-04T05:42:04.370Z,26.20
2022-08-04T05:44:59.430Z,26.40
2022-08-04T05:47:53.908Z,26.70
2022-08-04T05:50:47.545Z,26.60
2022-08-04T05:53:44.329Z,26.40
2022-08-04T05:56:37.872Z,26.40
2022-08-04T05:59:32.140Z,26.10
2022-08-04T06:02:25.381Z,25.80
2022-08-04T06:05:18.435Z,25.80
2022-08-04T06:08:12.184Z,25.90
2022-08-04T06:11:08.795Z,25.80
2022-08-04T06:14:05.146Z,25.60
2022-08-04T06:16:58.209Z,25.90
2022-08-04T06:19:59.846Z,26.30
2022-08-04T06:23:00.187Z,26.70
2022-08-04T06:25:57.097Z,26.60
2022-08-04T06:28:53.843Z,26.40
2022-08-04T06:32:27.963Z,26.40
2022-08-04T06:35:04.426Z,26.50
2022-08-04T06:38:00.782Z,26.60
2022-08-04T06:40:58.174Z,26.60
2022-08-04T06:43:52.339Z,27.20
2022-08-04T06:46:45.122Z,27.40
2022-08-04T06:49:44.162Z,27.30
2022-08-04T06:52:51.893Z,27.20
2022-08-04T06:55:46.887Z,27.40
2022-08-04T06:58:40.897Z,27.40
2022-08-04T07:01:35.677Z,27.40
2022-08-04T07:04:28.220Z,27.80
2022-08-04T07:07:20.906Z,27.60
2022-08-04T07:10:30.833Z,28.00
2022-08-04T07:13:24.908Z,27.70
2022-08-04T07:16:20.709Z,27.80
2022-08-04T07:19:22.892Z,27.80
2022-08-04T07:22:25.346Z,27.60
2022-08-04T07:25:19.191Z,27.50
2022-08-04T07:28:14.478Z,27.30
2022-08-04T07:31:09.722Z,27.30
2022-08-04T07:34:16.901Z,27.30
2022-08-04T07:37:13.769Z,27.20
2022-08-04T07:40:07.028Z,27.20
2022-08-04T07:42:59.564Z,27.50
2022-08-04T07:45:51.825Z,27.70
2022-08-04T07:48:45.726Z,27.70
2022-08-04T07:51:38.811Z,27.60
2022-08-04T07:54:31.131Z,27.50
2022-08-04T07:57:40.348Z,27.80
2022-08-04T08:00:34.246Z,27.90
2022-08-04T08:03:27.409Z,28.20
2022-08-04T08:06:31.060Z,28.40
2022-08-04T08:09:26.394Z,28.30
2022-08-04T08:12:35.711Z,28.30
2022-08-04T08:15:31.713Z,28.30
2022-08-04T08:18:24.922Z,28.50
2022-08-04T08:21:20.655Z,28.80
2022-08-04T08:24:13.771Z,28.80
2022-08-04T08:27:07.417Z,28.90
2022-08-04T08:30:00.028Z,29.10
2022-08-04T08:32:52.237Z,28.90
2022-08-04T08:35:54.669Z,29.20
2022-08-04T08:38:52.889Z,29.40
2022-08-04T08:42:03.122Z,29.20
2022-08-04T08:45:33.586Z,28.80
2022-08-04T08:48:56.504Z,28.90
2022-08-04T08:53:00.923Z,29.10
2022-08-04T08:56:31.066Z,29.30
2022-08-04T08:59:50.649Z,29.30
2022-08-04T09:03:04.593Z,29.40
2022-08-04T09:06:34.651Z,29.30
2022-08-04T09:09:47.883Z,30.10
2022-08-04T09:12:55.344Z,30.20
2022-08-04T09:16:25.281Z,29.90
2022-08-04T09:19:51.623Z,30.10
2022-08-04T09:22:59.644Z,30.10
2022-08-04T09:26:14.956Z,30.20
2022-08-04T09:29:16.384Z,29.80
2022-08-04T09:32:20.412Z,29.80
2022-08-04T09:35:33.706Z,30.20
2022-08-04T09:38:50.255Z,30.90
2022-08-04T09:41:49.648Z,30.70
2022-08-04T09:45:07.785Z,30.50
2022-08-04T09:48:14.230Z,31.10
2022-08-04T09:51:16.489Z,31.50
2022-08-04T09:54:35.959Z,31.30
2022-08-04T09:57:36.278Z,31.30
2022-08-04T10:00:41.044Z,32.00
2022-08-04T10:03:38.499Z,31.60
2022-08-04T10:06:52.560Z,31.10
2022-08-04T10:09:59.736Z,31.10
2022-08-04T10:13:16.549Z,31.10
2022-08-04T10:16:31.942Z,30.90
2022-08-04T10:19:28.821Z,30.90
2022-08-04T10:22:36.967Z,30.90
2022-08-04T10:26:07.732Z,30.90
2022-08-04T10:29:03.730Z,31.50
2022-08-04T10:32:19.889Z,31.60
2022-08-04T10:35:15.859Z,31.80
2022-08-04T10:38:28.785Z,31.70
2022-08-04T10:41:40.225Z,31.40
2022-08-04T10:44:54.339Z,31.30
2022-08-04T10:47:59.144Z,31.80
2022-08-04T10:51:04.593Z,32.10
2022-08-04T10:54:00.736Z,31.90
2022-08-04T10:57:01.397Z,32.00
2022-08-04T11:00:03.183Z,32.10
2022-08-04T11:03:02.443Z,31.90
2022-08-04T11:05:56.583Z,31.90
2022-08-04T11:08:53.562Z,32.10
2022-08-04T11:12:00.890Z,32.10
2022-08-04T11:15:13.515Z,32.30
2022-08-04T11:18:16.471Z,32.90
2022-08-04T11:21:21.521Z,32.70
2022-08-04T11:24:26.243Z,32.20
2022-08-04T11:27:29.245Z,31.80
2022-08-04T11:30:22.009Z,31.60
2022-08-04T11:33:35.572Z,31.60
2022-08-04T11:36:55.012Z,31.70
2022-08-04T11:40:11.667Z,31.80
2022-08-04T11:43:56.595Z,31.90
2022-08-04T11:46:59.869Z,32.30
2022-08-04T11:50:03.511Z,32.30
2022-08-04T11:52:58.242Z,32.30
2022-08-04T11:56:08.279Z,32.00
2022-08-04T11:59:03.768Z,32.10
2022-08-04T12:02:01.764Z,32.10
2022-08-04T12:05:07.510Z,31.90
2022-08-04T12:08:21.991Z,31.90
2022-08-04T12:11:48.222Z,32.10
2022-08-04T12:14:58.364Z,32.40
2022-08-04T12:18:21.035Z,32.50
2022-08-04T12:21:24.041Z,32.50
2022-08-04T12:24:22.458Z,32.50
2022-08-04T12:27:20.257Z,32.50
2022-08-04T12:30:57.369Z,32.50
2022-08-04T12:34:04.811Z,32.30
2022-08-04T12:37:23.441Z,32.40
2022-08-04T12:40:29.548Z,32.30
2022-08-04T12:43:42.277Z,32.50
2022-08-04T12:46:35.454Z,32.50
2022-08-04T12:49:28.941Z,32.60
2022-08-04T12:52:24.822Z,32.70
2022-08-04T12:55:29.830Z,32.60
2022-08-04T12:58:43.401Z,32.50
2022-08-04T13:02:09.174Z,32.30
2022-08-04T13:04:51.658Z,31.70
2022-08-04T13:07:50.963Z,31.40
2022-08-04T13:10:47.599Z,31.20
2022-08-04T13:13:41.789Z,31.10
2022-08-04T13:16:34.338Z,31.20
2022-08-04T13:19:27.521Z,31.20
2022-08-04T13:22:26.973Z,31.20
2022-08-04T13:26:42.246Z,31.20
2022-08-04T13:28:37.229Z,31.10
2022-08-04T13:31:37.210Z,31.00
2022-08-04T13:34:30.952Z,31.10
2022-08-04T13:37:35.843Z,31.20
2022-08-04T13:40:31.979Z,31.50
2022-08-04T13:44:18.894Z,31.70
2022-08-04T13:46:54.509Z,31.90
2022-08-04T13:50:11.041Z,32.10
2022-08-04T13:53:06.735Z,32.40
2022-08-04T13:56:02.932Z,32.40
2022-08-04T13:59:01.506Z,32.20
2022-08-04T14:02:01.817Z,32.20
2022-08-04T14:04:57.800Z,32.10
2022-08-04T14:08:09.120Z,32.10
2022-08-04T14:11:01.460Z,32.10
2022-08-04T14:13:53.868Z,32.20
2022-08-04T14:17:04.338Z,32.30
2022-08-04T14:19:57.692Z,32.20
2022-08-04T14:22:49.883Z,32.10
2022-08-04T14:25:42.103Z,32.00
2022-08-04T14:29:09.482Z,32.10
2022-08-04T14:31:55.952Z,32.20
2022-08-04T14:34:51.208Z,32.30
2022-08-04T14:37:57.010Z,32.50
2022-08-04T14:41:00.142Z,32.50
2022-08-04T14:43:57.779Z,32.50
2022-08-04T14:46:55.998Z,32.40
2022-08-04T14:49:56.004Z,32.10
2022-08-04T14:52:48.272Z,32.20
2022-08-04T14:55:44.595Z,32.20
2022-08-04T14:58:39.357Z,32.20
2022-08-04T15:01:32.697Z,32.10
2022-08-04T15:04:26.194Z,32.10
2022-08-04T15:07:19.793Z,32.20
2022-08-04T15:10:13.576Z,32.10
2022-08-04T15:13:07.616Z,31.90
2022-08-04T15:16:07.435Z,31.90
2022-08-04T15:19:01.189Z,31.90
2022-08-04T15:21:53.764Z,32.00
2022-08-04T15:24:52.237Z,32.10
2022-08-04T15:27:50.064Z,32.10
2022-08-04T15:30:45.131Z,32.10
2022-08-04T15:33:41.588Z,32.20
2022-08-04T15:36:34.253Z,32.20
2022-08-04T15:39:59.856Z,32.10
2022-08-04T15:43:19.273Z,32.00
2022-08-04T15:46:44.333Z,32.00
2022-08-04T15:49:25.643Z,31.90
2022-08-04T15:52:18.320Z,32.10
2022-08-04T15:55:39.418Z,32.00
2022-08-04T15:58:49.602Z,31.90
2022-08-04T16:01:42.442Z,31.80
2022-08-04T16:05:18.120Z,31.70
2022-08-04T16:08:13.083Z,31.80
2022-08-04T16:11:05.325Z,31.80
2022-08-04T16:14:09.504Z,31.90
2022-08-04T16:17:22.039Z,31.90
2022-08-04T16:20:15.309Z,31.80
2022-08-04T16:23:52.895Z,31.70
2022-08-04T16:26:54.412Z,31.70
2022-08-04T16:29:48.617Z,31.60
2022-08-04T16:32:45.948Z,31.50
2022-08-04T16:35:42.255Z,31.50
2022-08-04T16:39:02.302Z,31.50
2022-08-04T16:41:55.127Z,31.40
2022-08-04T16:45:16.975Z,31.40
2022-08-04T16:48:10.505Z,31.40
2022-08-04T16:51:13.107Z,31.30
2022-08-04T16:54:06.532Z,31.40
2022-08-04T16:57:00.191Z,31.40
2022-08-04T16:59:52.678Z,31.40
2022-08-04T17:02:47.892Z,31.20
2022-08-04T17:05:40.644Z,31.10
2022-08-04T17:08:33.699Z,31.10
2022-08-04T17:11:32.793Z,31.00
2022-08-04T17:14:29.251Z,30.90
2022-08-04T17:17:23.329Z,30.80
2022-08-04T17:20:16.043Z,30.70
2022-08-04T17:24:15.619Z,30.60
2022-08-04T17:26:41.836Z,30.50
2022-08-04T17:29:45.226Z,30.30
2022-08-04T17:32:40.210Z,30.20
2022-08-04T17:38:48.341Z,30.00
2022-08-04T17:41:48.696Z,29.90
2022-08-04T17:44:41.740Z,29.80
2022-08-04T17:47:38.314Z,29.80
2022-08-04T17:50:35.730Z,29.70
2022-08-04T17:53:52.810Z,29.50
2022-08-04T17:56:52.125Z,29.50
2022-08-04T17:59:55.517Z,29.40
2022-08-04T18:02:54.635Z,29.30
2022-08-04T18:06:02.357Z,29.20
2022-08-04T18:08:59.246Z,29.10
2022-08-04T18:12:14.892Z,28.90
2022-08-04T18:15:20.540Z,28.80
2022-08-04T18:18:23.598Z,28.60
2022-08-04T18:21:16.095Z,28.40
2022-08-04T18:24:08.467Z,28.30
2022-08-04T18:30:38.185Z,28.00
2022-08-04T18:33:39.506Z,27.90
2022-08-04T18:36:37.958Z,27.80
2022-08-04T18:40:09.555Z,27.70
2022-08-04T18:42:43.298Z,27.50
2022-08-04T18:45:35.461Z,27.40
2022-08-04T18:48:36.002Z,27.30
2022-08-04T18:51:31.028Z,27.30
2022-08-04T18:54:24.897Z,27.30
2022-08-04T18:57:58.428Z,27.20
2022-08-04T19:00:37.907Z,27.20
2022-08-04T19:03:37.725Z,27.10
2022-08-04T19:06:37.010Z,27.10
2022-08-04T19:09:51.074Z,26.90
2022-08-04T19:12:41.704Z,26.80
2022-08-04T19:15:34.686Z,26.70
2022-08-04T19:18:28.135Z,26.40
2022-08-04T19:21:20.567Z,26.10
2022-08-04T19:24:34.096Z,25.90
2022-08-04T19:27:38.844Z,25.70
2022-08-04T19:30:32.333Z,25.70
2022-08-04T19:33:25.212Z,25.70
2022-08-04T19:36:17.787Z,25.60
2022-08-04T19:39:11.891Z,25.60
2022-08-04T19:42:06.855Z,25.50
2022-08-04T19:44:59.554Z,25.30
2022-08-04T19:48:18.296Z,25.20
2022-08-04T19:51:04.035Z,25.10
2022-08-04T19:54:04.168Z,25.00
2022-08-04T19:57:09.088Z,24.90
2022-08-04T20:00:05.443Z,25.00
2022-08-04T20:02:59.158Z,25.00
2022-08-04T20:05:55.767Z,25.10
2022-08-04T20:08:48.889Z,25.00
2022-08-04T20:11:41.179Z,24.90
2022-08-04T20:14:36.046Z,24.80
2022-08-04T20:18:07.118Z,24.80
2022-08-04T20:20:40.490Z,24.70
2022-08-04T20:23:48.659Z,24.60
2022-08-04T20:26:42.275Z,24.60
2022-08-04T20:29:43.133Z,24.60
2022-08-04T20:32:35.755Z,24.60
2022-08-04T20:35:29.481Z,24.50
2022-08-04T20:38:33.209Z,24.30
2022-08-04T20:41:26.487Z,24.30
2022-08-04T20:44:29.246Z,24.20
2022-08-04T20:47:22.277Z,24.10
2022-08-04T20:50:14.853Z,24.00
2022-08-04T20:56:31.290Z,23.80
2022-08-04T20:59:24.266Z,23.70
2022-08-04T21:02:16.626Z,23.70
2022-08-04T21:05:09.555Z,23.60
2022-08-04T21:08:02.003Z,23.50
2022-08-04T21:10:54.213Z,23.40
2022-08-04T21:13:51.975Z,23.30
2022-08-04T21:19:57.926Z,23.10
2022-08-04T21:22:50.234Z,23.20
2022-08-04T21:25:43.628Z,23.10
2022-08-04T21:28:36.101Z,23.00
2022-08-04T21:31:28.385Z,23.10
2022-08-04T21:34:39.532Z,23.10
2022-08-04T21:37:56.650Z,23.20
2022-08-04T21:40:53.559Z,23.10
2022-08-04T21:43:46.156Z,23.10
2022-08-04T21:46:44.342Z,23.00
2022-08-04T21:49:37.171Z,23.00
2022-08-04T21:52:49.224Z,22.90
2022-08-04T21:56:06.698Z,22.90
2022-08-04T21:58:54.225Z,22.80
2022-08-04T22:01:54.651Z,22.50
2022-08-04T22:04:48.865Z,22.30
2022-08-04T22:07:50.991Z,22.30
2022-08-04T22:10:44.457Z,22.20
2022-08-04T22:13:52.545Z,22.10
2022-08-04T22:16:51.094Z,22.00
2022-08-04T22:19:55.194Z,21.90
2022-08-04T22:22:51.380Z,22.00
2022-08-04T22:25:44.924Z,22.10
2022-08-04T22:28:46.165Z,22.00
2022-08-04T22:31:56.308Z,22.00
2022-08-04T22:34:53.397Z,22.00
2022-08-04T22:37:57.258Z,22.00
2022-08-04T22:41:00.795Z,21.90
2022-08-04T22:43:54.661Z,21.70
2022-08-04T22:46:47.443Z,21.70
2022-08-04T22:49:40.416Z,21.70
2022-08-04T22:52:33.443Z,21.70
2022-08-04T22:55:25.661Z,21.70
2022-08-04T22:58:45.924Z,21.70
2022-08-04T23:01:59.602Z,21.80
2022-08-04T23:04:54.249Z,21.70
2022-08-04T23:07:49.008Z,21.60
2022-08-04T23:10:46.346Z,21.50
2022-08-04T23:13:38.646Z,21.30
2022-08-04T23:16:40.672Z,21.20
2022-08-04T23:19:34.375Z,21.20
2022-08-04T23:22:41.133Z,21.10
2022-08-04T23:26:07.581Z,21.20
2022-08-04T23:28:47.382Z,21.20
2022-08-04T23:31:40.835Z,21.10
2022-08-04T23:34:33.927Z,21.00
2022-08-04T23:37:26.159Z,21.00
2022-08-04T23:40:34.393Z,21.10
2022-08-04T23:43:26.929Z,21.10
2022-08-04T23:46:39.123Z,21.20
2022-08-04T23:49:44.854Z,21.30
2022-08-04T23:52:37.487Z,21.30
2022-08-04T23:55:32.091Z,21.40
2022-08-04T23:58:27.551Z,21.40
